sensor_id;sensor_type;location;lat;lon;timestamp;temperature;humidity
13652;DHT22;6899;51.546;6.912;2022-12-18T00:01:46;-9.10;99.90
13652;DHT22;6899;51.546;6.912;2022-12-18T00:04:21;-9.30;99.90
13652;DHT22;6899;51.546;6.912;2022-12-18T00:06:48;-9.30;99.90
13652;DHT22;6899;51.546;6.912;2022-12-18T00:09:22;-9.10;99.90
13652;DHT22;6899;51.546;6.912;2022-12-18T00:11:50;-9.10;99.90
13652;DHT22;6899;51.546;6.912;2022-12-18T00:14:17;-9.10;99.90
13652;DHT22;6899;51.546;6.912;2022-12-18T00:16:44;-9.20;99.90
13652;DHT22;6899;51.546;6.912;2022-12-18T00:19:12;-9.40;99.90
13652;DHT22;6899;51.546;6.912;2022-12-18T00:21:39;-9.60;99.90
13652;DHT22;6899;51.546;6.912;2022-12-18T00:24:06;-9.50;99.90
13652;DHT22;6899;51.546;6.912;2022-12-18T00:26:34;-9.60;99.90
13652;DHT22;6899;51.546;6.912;2022-12-18T00:29:05;-9.60;99.90
13652;DHT22;6899;51.546;6.912;2022-12-18T00:31:32;-9.50;99.90
13652;DHT22;6899;51.546;6.912;2022-12-18T00:34:00;-9.40;99.90
13652;DHT22;6899;51.546;6.912;2022-12-18T00:36:28;-9.60;99.90
13652;DHT22;6899;51.546;6.912;2022-12-18T00:38:57;-9.40;99.90
13652;DHT22;6899;51.546;6.912;2022-12-18T00:41:24;-9.30;99.90
13652;DHT22;6899;51.546;6.912;2022-12-18T00:44:15;-9.20;99.90
13652;DHT22;6899;51.546;6.912;2022-12-18T00:46:42;-9.20;99.90
13652;DHT22;6899;51.546;6.912;2022-12-18T00:49:09;-9.20;99.90
13652;DHT22;6899;51.546;6.912;2022-12-18T00:51:46;-9.40;99.90
13652;DHT22;6899;51.546;6.912;2022-12-18T00:54:13;-9.50;99.90
13652;DHT22;6899;51.546;6.912;2022-12-18T00:56:40;-9.40;99.90
13652;DHT22;6899;51.546;6.912;2022-12-18T00:59:07;-9.30;99.90
13652;DHT22;6899;51.546;6.912;2022-12-18T01:01:35;-9.30;99.90
13652;DHT22;6899;51.546;6.912;2022-12-18T01:04:02;-9.30;99.90
13652;DHT22;6899;51.546;6.912;2022-12-18T01:06:29;-9.40;99.90
13652;DHT22;6899;51.546;6.912;2022-12-18T01:08:56;-9.50;99.90
13652;DHT22;6899;51.546;6.912;2022-12-18T01:11:23;-9.60;99.90
13652;DHT22;6899;51.546;6.912;2022-12-18T01:13:52;-9.60;99.90
13652;DHT22;6899;51.546;6.912;2022-12-18T01:16:19;-9.50;99.90
13652;DHT22;6899;51.546;6.912;2022-12-18T01:18:47;-9.50;99.90
13652;DHT22;6899;51.546;6.912;2022-12-18T01:21:15;-9.50;99.90
13652;DHT22;6899;51.546;6.912;2022-12-18T01:23:42;-9.60;99.90
13652;DHT22;6899;51.546;6.912;2022-12-18T01:26:14;-9.70;99.90
13652;DHT22;6899;51.546;6.912;2022-12-18T01:28:41;-9.70;99.90
13652;DHT22;6899;51.546;6.912;2022-12-18T01:31:10;-9.50;99.90
13652;DHT22;6899;51.546;6.912;2022-12-18T01:33:37;-9.50;99.90
13652;DHT22;6899;51.546;6.912;2022-12-18T01:36:06;-9.50;99.90
13652;DHT22;6899;51.546;6.912;2022-12-18T01:38:32;-9.50;99.90
13652;DHT22;6899;51.546;6.912;2022-12-18T01:41:00;-9.60;99.90
13652;DHT22;6899;51.546;6.912;2022-12-18T01:43:48;-9.70;99.90
13652;DHT22;6899;51.546;6.912;2022-12-18T01:46:17;-9.80;99.90
13652;DHT22;6899;51.546;6.912;2022-12-18T01:48:45;-9.70;99.90
13652;DHT22;6899;51.546;6.912;2022-12-18T01:51:15;-9.90;99.90
13652;DHT22;6899;51.546;6.912;2022-12-18T01:53:43;-9.90;99.90
13652;DHT22;6899;51.546;6.912;2022-12-18T01:56:22;-9.80;99.90
13652;DHT22;6899;51.546;6.912;2022-12-18T01:58:57;-9.50;99.90
13652;DHT22;6899;51.546;6.912;2022-12-18T02:01:31;-9.60;99.90
13652;DHT22;6899;51.546;6.912;2022-12-18T02:04:19;-9.60;99.90
13652;DHT22;6899;51.546;6.912;2022-12-18T02:06:51;-9.70;99.90
13652;DHT22;6899;51.546;6.912;2022-12-18T02:09:25;-9.70;99.90
13652;DHT22;6899;51.546;6.912;2022-12-18T02:12:01;-9.90;99.90
13652;DHT22;6899;51.546;6.912;2022-12-18T02:14:35;-9.80;99.90
13652;DHT22;6899;51.546;6.912;2022-12-18T02:17:09;-9.80;99.90
13652;DHT22;6899;51.546;6.912;2022-12-18T02:19:47;-9.90;99.90
13652;DHT22;6899;51.546;6.912;2022-12-18T02:22:26;-9.90;99.90
13652;DHT22;6899;51.546;6.912;2022-12-18T02:25:00;-9.90;99.90
13652;DHT22;6899;51.546;6.912;2022-12-18T02:27:31;-9.70;99.90
13652;DHT22;6899;51.546;6.912;2022-12-18T02:29:59;-9.60;99.90
13652;DHT22;6899;51.546;6.912;2022-12-18T02:32:30;-9.60;99.90
13652;DHT22;6899;51.546;6.912;2022-12-18T02:34:59;-9.60;99.90
13652;DHT22;6899;51.546;6.912;2022-12-18T02:37:26;-9.70;99.90
13652;DHT22;6899;51.546;6.912;2022-12-18T02:39:56;-9.80;99.90
13652;DHT22;6899;51.546;6.912;2022-12-18T02:42:24;-9.80;99.90
13652;DHT22;6899;51.546;6.912;2022-12-18T02:44:55;-9.80;99.90
13652;DHT22;6899;51.546;6.912;2022-12-18T02:47:24;-9.80;99.90
13652;DHT22;6899;51.546;6.912;2022-12-18T02:49:59;-9.80;99.90
13652;DHT22;6899;51.546;6.912;2022-12-18T02:52:32;-9.90;99.90
13652;DHT22;6899;51.546;6.912;2022-12-18T02:55:08;-10.00;99.90
13652;DHT22;6899;51.546;6.912;2022-12-18T02:57:44;-10.00;99.90
13652;DHT22;6899;51.546;6.912;2022-12-18T03:00:19;-9.90;99.90
13652;DHT22;6899;51.546;6.912;2022-12-18T03:02:48;-9.90;99.90
13652;DHT22;6899;51.546;6.912;2022-12-18T03:05:21;-9.80;99.90
13652;DHT22;6899;51.546;6.912;2022-12-18T03:07:53;-9.60;99.90
13652;DHT22;6899;51.546;6.912;2022-12-18T03:10:26;-9.80;99.90
13652;DHT22;6899;51.546;6.912;2022-12-18T03:12:59;-9.90;99.90
13652;DHT22;6899;51.546;6.912;2022-12-18T03:15:30;-9.80;99.90
13652;DHT22;6899;51.546;6.912;2022-12-18T03:18:01;-9.80;99.90
13652;DHT22;6899;51.546;6.912;2022-12-18T03:20:31;-9.80;99.90
13652;DHT22;6899;51.546;6.912;2022-12-18T03:23:02;-9.80;99.90
13652;DHT22;6899;51.546;6.912;2022-12-18T03:25:31;-9.90;99.90
13652;DHT22;6899;51.546;6.912;2022-12-18T03:28:00;-9.80;99.90
13652;DHT22;6899;51.546;6.912;2022-12-18T03:30:30;-9.90;99.90
13652;DHT22;6899;51.546;6.912;2022-12-18T03:33:05;-10.00;99.90
13652;DHT22;6899;51.546;6.912;2022-12-18T03:35:36;-10.10;99.90
13652;DHT22;6899;51.546;6.912;2022-12-18T03:38:09;-10.10;99.90
13652;DHT22;6899;51.546;6.912;2022-12-18T03:40:43;-10.30;99.90
13652;DHT22;6899;51.546;6.912;2022-12-18T03:43:16;-10.00;99.90
13652;DHT22;6899;51.546;6.912;2022-12-18T03:45:50;-9.90;99.90
13652;DHT22;6899;51.546;6.912;2022-12-18T03:48:23;-9.90;99.90
13652;DHT22;6899;51.546;6.912;2022-12-18T03:50:56;-10.00;99.90
13652;DHT22;6899;51.546;6.912;2022-12-18T03:53:32;-9.90;99.90
13652;DHT22;6899;51.546;6.912;2022-12-18T03:56:01;-9.90;99.90
13652;DHT22;6899;51.546;6.912;2022-12-18T03:58:29;-9.90;99.90
13652;DHT22;6899;51.546;6.912;2022-12-18T04:01:02;-10.00;99.90
13652;DHT22;6899;51.546;6.912;2022-12-18T04:03:32;-10.00;99.90
13652;DHT22;6899;51.546;6.912;2022-12-18T04:06:00;-10.00;99.90
13652;DHT22;6899;51.546;6.912;2022-12-18T04:08:28;-10.20;99.90
13652;DHT22;6899;51.546;6.912;2022-12-18T04:13:47;-10.30;99.90
13652;DHT22;6899;51.546;6.912;2022-12-18T04:16:16;-10.40;99.90
13652;DHT22;6899;51.546;6.912;2022-12-18T04:18:43;-10.10;99.90
13652;DHT22;6899;51.546;6.912;2022-12-18T04:21:10;-10.00;99.90
13652;DHT22;6899;51.546;6.912;2022-12-18T04:23:36;-10.00;99.90
13652;DHT22;6899;51.546;6.912;2022-12-18T04:26:04;-10.00;99.90
13652;DHT22;6899;51.546;6.912;2022-12-18T04:28:31;-9.90;99.90
13652;DHT22;6899;51.546;6.912;2022-12-18T04:30:58;-9.90;99.90
13652;DHT22;6899;51.546;6.912;2022-12-18T04:33:26;-9.90;99.90
13652;DHT22;6899;51.546;6.912;2022-12-18T04:35:59;-10.00;99.90
13652;DHT22;6899;51.546;6.912;2022-12-18T04:38:26;-10.00;99.90
13652;DHT22;6899;51.546;6.912;2022-12-18T04:40:53;-10.00;99.90
13652;DHT22;6899;51.546;6.912;2022-12-18T04:43:19;-10.10;99.90
13652;DHT22;6899;51.546;6.912;2022-12-18T04:45:46;-10.00;99.90
13652;DHT22;6899;51.546;6.912;2022-12-18T04:48:13;-10.10;99.90
13652;DHT22;6899;51.546;6.912;2022-12-18T04:50:41;-10.00;99.90
13652;DHT22;6899;51.546;6.912;2022-12-18T04:53:08;-10.20;99.90
13652;DHT22;6899;51.546;6.912;2022-12-18T04:55:37;-10.00;99.90
13652;DHT22;6899;51.546;6.912;2022-12-18T04:58:04;-9.90;99.90
13652;DHT22;6899;51.546;6.912;2022-12-18T05:00:31;-9.90;99.90
13652;DHT22;6899;51.546;6.912;2022-12-18T05:03:00;-10.00;99.90
13652;DHT22;6899;51.546;6.912;2022-12-18T05:05:27;-10.00;99.90
13652;DHT22;6899;51.546;6.912;2022-12-18T05:07:55;-10.00;99.90
13652;DHT22;6899;51.546;6.912;2022-12-18T05:10:24;-10.00;99.90
13652;DHT22;6899;51.546;6.912;2022-12-18T05:12:51;-10.00;99.90
13652;DHT22;6899;51.546;6.912;2022-12-18T05:15:26;-10.00;99.90
13652;DHT22;6899;51.546;6.912;2022-12-18T05:17:53;-10.00;99.90
13652;DHT22;6899;51.546;6.912;2022-12-18T05:20:19;-9.90;99.90
13652;DHT22;6899;51.546;6.912;2022-12-18T05:22:46;-9.90;99.90
13652;DHT22;6899;51.546;6.912;2022-12-18T05:25:18;-10.10;99.90
13652;DHT22;6899;51.546;6.912;2022-12-18T05:27:45;-10.00;99.90
13652;DHT22;6899;51.546;6.912;2022-12-18T05:30:13;-9.90;99.90
13652;DHT22;6899;51.546;6.912;2022-12-18T05:32:41;-9.80;99.90
13652;DHT22;6899;51.546;6.912;2022-12-18T05:35:09;-10.00;99.90
13652;DHT22;6899;51.546;6.912;2022-12-18T05:37:42;-10.10;99.90
13652;DHT22;6899;51.546;6.912;2022-12-18T05:40:10;-10.00;99.90
13652;DHT22;6899;51.546;6.912;2022-12-18T05:42:38;-10.00;99.90
13652;DHT22;6899;51.546;6.912;2022-12-18T05:45:06;-10.00;99.90
13652;DHT22;6899;51.546;6.912;2022-12-18T05:47:33;-10.00;99.90
13652;DHT22;6899;51.546;6.912;2022-12-18T05:50:03;-9.90;99.90
13652;DHT22;6899;51.546;6.912;2022-12-18T05:52:39;-9.90;99.90
13652;DHT22;6899;51.546;6.912;2022-12-18T05:55:09;-9.90;99.90
13652;DHT22;6899;51.546;6.912;2022-12-18T05:57:35;-9.80;99.90
13652;DHT22;6899;51.546;6.912;2022-12-18T06:00:04;-9.90;99.90
13652;DHT22;6899;51.546;6.912;2022-12-18T06:02:32;-9.90;99.90
13652;DHT22;6899;51.546;6.912;2022-12-18T06:04:58;-10.00;99.90
13652;DHT22;6899;51.546;6.912;2022-12-18T06:07:28;-10.00;99.90
13652;DHT22;6899;51.546;6.912;2022-12-18T06:09:54;-9.90;99.90
13652;DHT22;6899;51.546;6.912;2022-12-18T06:12:21;-9.90;99.90
13652;DHT22;6899;51.546;6.912;2022-12-18T06:14:48;-9.80;99.90
13652;DHT22;6899;51.546;6.912;2022-12-18T06:17:16;-9.80;99.90
13652;DHT22;6899;51.546;6.912;2022-12-18T06:19:43;-9.70;99.90
13652;DHT22;6899;51.546;6.912;2022-12-18T06:22:10;-9.70;99.90
13652;DHT22;6899;51.546;6.912;2022-12-18T06:24:37;-9.70;99.90
13652;DHT22;6899;51.546;6.912;2022-12-18T06:27:04;-9.70;99.90
13652;DHT22;6899;51.546;6.912;2022-12-18T06:29:33;-9.60;99.90
13652;DHT22;6899;51.546;6.912;2022-12-18T06:32:00;-9.60;99.90
13652;DHT22;6899;51.546;6.912;2022-12-18T06:34:28;-9.60;99.90
13652;DHT22;6899;51.546;6.912;2022-12-18T06:36:55;-9.70;99.90
13652;DHT22;6899;51.546;6.912;2022-12-18T06:39:22;-9.60;99.90
13652;DHT22;6899;51.546;6.912;2022-12-18T06:41:49;-9.70;99.90
13652;DHT22;6899;51.546;6.912;2022-12-18T06:44:16;-9.80;99.90
13652;DHT22;6899;51.546;6.912;2022-12-18T06:46:42;-9.80;99.90
13652;DHT22;6899;51.546;6.912;2022-12-18T06:49:09;-9.80;99.90
13652;DHT22;6899;51.546;6.912;2022-12-18T06:51:37;-9.70;99.90
13652;DHT22;6899;51.546;6.912;2022-12-18T06:54:04;-9.80;99.90
13652;DHT22;6899;51.546;6.912;2022-12-18T06:56:31;-9.70;99.90
13652;DHT22;6899;51.546;6.912;2022-12-18T06:58:58;-9.70;99.90
13652;DHT22;6899;51.546;6.912;2022-12-18T07:01:25;-9.70;99.90
13652;DHT22;6899;51.546;6.912;2022-12-18T07:03:52;-9.70;99.90
13652;DHT22;6899;51.546;6.912;2022-12-18T07:06:22;-9.70;99.90
13652;DHT22;6899;51.546;6.912;2022-12-18T07:08:51;-9.70;99.90
13652;DHT22;6899;51.546;6.912;2022-12-18T07:11:20;-9.70;99.90
13652;DHT22;6899;51.546;6.912;2022-12-18T07:13:46;-9.80;99.90
13652;DHT22;6899;51.546;6.912;2022-12-18T07:16:15;-9.80;99.90
13652;DHT22;6899;51.546;6.912;2022-12-18T07:18:42;-9.80;99.90
13652;DHT22;6899;51.546;6.912;2022-12-18T07:21:13;-9.80;99.90
13652;DHT22;6899;51.546;6.912;2022-12-18T07:23:40;-9.70;99.90
13652;DHT22;6899;51.546;6.912;2022-12-18T07:26:11;-9.70;99.90
13652;DHT22;6899;51.546;6.912;2022-12-18T07:28:39;-9.70;99.90
13652;DHT22;6899;51.546;6.912;2022-12-18T07:31:08;-9.80;99.90
13652;DHT22;6899;51.546;6.912;2022-12-18T07:33:35;-9.80;99.90
13652;DHT22;6899;51.546;6.912;2022-12-18T07:36:04;-9.80;99.90
13652;DHT22;6899;51.546;6.912;2022-12-18T07:38:32;-9.80;99.90
13652;DHT22;6899;51.546;6.912;2022-12-18T07:41:11;-9.70;99.90
13652;DHT22;6899;51.546;6.912;2022-12-18T07:43:44;-9.60;99.90
13652;DHT22;6899;51.546;6.912;2022-12-18T07:46:15;-9.80;99.90
13652;DHT22;6899;51.546;6.912;2022-12-18T07:48:43;-9.70;99.90
13652;DHT22;6899;51.546;6.912;2022-12-18T07:51:12;-9.60;99.90
13652;DHT22;6899;51.546;6.912;2022-12-18T07:53:39;-9.40;99.90
13652;DHT22;6899;51.546;6.912;2022-12-18T07:56:08;-9.40;99.90
13652;DHT22;6899;51.546;6.912;2022-12-18T07:58:38;-9.40;99.90
13652;DHT22;6899;51.546;6.912;2022-12-18T08:01:06;-9.20;99.90
13652;DHT22;6899;51.546;6.912;2022-12-18T08:03:33;-9.00;99.90
13652;DHT22;6899;51.546;6.912;2022-12-18T08:06:00;-8.90;99.90
13652;DHT22;6899;51.546;6.912;2022-12-18T08:08:27;-8.80;99.90
13652;DHT22;6899;51.546;6.912;2022-12-18T08:10:54;-8.70;99.90
13652;DHT22;6899;51.546;6.912;2022-12-18T08:13:21;-8.70;99.90
13652;DHT22;6899;51.546;6.912;2022-12-18T08:15:56;-8.70;99.90
13652;DHT22;6899;51.546;6.912;2022-12-18T08:18:24;-8.60;99.90
13652;DHT22;6899;51.546;6.912;2022-12-18T08:20:51;-8.60;99.90
13652;DHT22;6899;51.546;6.912;2022-12-18T08:23:18;-8.50;99.90
13652;DHT22;6899;51.546;6.912;2022-12-18T08:25:45;-8.50;99.90
13652;DHT22;6899;51.546;6.912;2022-12-18T08:28:12;-8.30;99.90
13652;DHT22;6899;51.546;6.912;2022-12-18T08:30:40;-8.30;99.90
13652;DHT22;6899;51.546;6.912;2022-12-18T08:33:15;-8.20;99.90
13652;DHT22;6899;51.546;6.912;2022-12-18T08:35:45;-7.90;99.90
13652;DHT22;6899;51.546;6.912;2022-12-18T08:38:13;-7.70;99.90
13652;DHT22;6899;51.546;6.912;2022-12-18T08:40:42;-7.50;99.90
13652;DHT22;6899;51.546;6.912;2022-12-18T08:43:09;-7.40;99.90
13652;DHT22;6899;51.546;6.912;2022-12-18T08:46:06;-7.30;99.90
13652;DHT22;6899;51.546;6.912;2022-12-18T08:48:34;-7.10;99.90
13652;DHT22;6899;51.546;6.912;2022-12-18T08:51:01;-7.00;99.90
13652;DHT22;6899;51.546;6.912;2022-12-18T08:53:28;-6.90;99.90
13652;DHT22;6899;51.546;6.912;2022-12-18T08:55:58;-6.70;99.90
13652;DHT22;6899;51.546;6.912;2022-12-18T08:58:24;-6.50;99.90
13652;DHT22;6899;51.546;6.912;2022-12-18T09:00:51;-6.40;99.90
13652;DHT22;6899;51.546;6.912;2022-12-18T09:03:18;-6.30;99.90
13652;DHT22;6899;51.546;6.912;2022-12-18T09:05:49;-6.10;99.90
13652;DHT22;6899;51.546;6.912;2022-12-18T09:08:16;-6.00;99.90
13652;DHT22;6899;51.546;6.912;2022-12-18T09:10:47;-5.80;99.90
13652;DHT22;6899;51.546;6.912;2022-12-18T09:13:14;-5.60;99.90
13652;DHT22;6899;51.546;6.912;2022-12-18T09:15:52;-5.50;99.90
13652;DHT22;6899;51.546;6.912;2022-12-18T09:18:25;-5.30;99.90
13652;DHT22;6899;51.546;6.912;2022-12-18T09:20:56;-5.20;99.90
13652;DHT22;6899;51.546;6.912;2022-12-18T09:23:31;-5.20;99.90
13652;DHT22;6899;51.546;6.912;2022-12-18T09:25:59;-5.10;99.90
13652;DHT22;6899;51.546;6.912;2022-12-18T09:28:26;-5.00;99.90
13652;DHT22;6899;51.546;6.912;2022-12-18T09:30:54;-5.00;99.90
13652;DHT22;6899;51.546;6.912;2022-12-18T09:33:21;-4.90;99.90
13652;DHT22;6899;51.546;6.912;2022-12-18T09:35:51;-4.70;99.90
13652;DHT22;6899;51.546;6.912;2022-12-18T09:38:19;-4.60;99.90
13652;DHT22;6899;51.546;6.912;2022-12-18T09:40:49;-4.40;99.90
13652;DHT22;6899;51.546;6.912;2022-12-18T09:43:19;-4.30;99.90
13652;DHT22;6899;51.546;6.912;2022-12-18T09:45:55;-4.10;99.90
13652;DHT22;6899;51.546;6.912;2022-12-18T09:48:40;-4.00;99.90
13652;DHT22;6899;51.546;6.912;2022-12-18T09:51:13;-3.90;99.90
13652;DHT22;6899;51.546;6.912;2022-12-18T09:53:51;-3.90;99.90
13652;DHT22;6899;51.546;6.912;2022-12-18T09:56:23;-3.70;99.90
13652;DHT22;6899;51.546;6.912;2022-12-18T09:58:57;-3.60;99.90
13652;DHT22;6899;51.546;6.912;2022-12-18T10:01:25;-3.50;99.90
13652;DHT22;6899;51.546;6.912;2022-12-18T10:03:53;-3.50;99.90
13652;DHT22;6899;51.546;6.912;2022-12-18T10:06:23;-3.40;99.90
13652;DHT22;6899;51.546;6.912;2022-12-18T10:08:59;-3.20;99.90
13652;DHT22;6899;51.546;6.912;2022-12-18T10:11:34;-3.00;99.90
13652;DHT22;6899;51.546;6.912;2022-12-18T10:14:13;-2.90;99.90
13652;DHT22;6899;51.546;6.912;2022-12-18T10:16:54;-2.70;99.90
13652;DHT22;6899;51.546;6.912;2022-12-18T10:19:37;-2.50;99.90
13652;DHT22;6899;51.546;6.912;2022-12-18T10:22:16;-2.30;99.90
13652;DHT22;6899;51.546;6.912;2022-12-18T10:24:54;-2.20;99.90
13652;DHT22;6899;51.546;6.912;2022-12-18T10:27:27;-2.00;99.90
13652;DHT22;6899;51.546;6.912;2022-12-18T10:29:57;-2.00;99.90
13652;DHT22;6899;51.546;6.912;2022-12-18T10:32:26;-1.80;99.90
13652;DHT22;6899;51.546;6.912;2022-12-18T10:34:54;-1.70;99.90
13652;DHT22;6899;51.546;6.912;2022-12-18T10:37:23;-1.60;99.90
13652;DHT22;6899;51.546;6.912;2022-12-18T10:40:11;-1.50;99.90
13652;DHT22;6899;51.546;6.912;2022-12-18T10:42:44;-1.30;99.90
13652;DHT22;6899;51.546;6.912;2022-12-18T10:45:15;-1.20;99.90
13652;DHT22;6899;51.546;6.912;2022-12-18T10:47:44;-1.10;99.90
13652;DHT22;6899;51.546;6.912;2022-12-18T10:50:20;-1.00;99.90
13652;DHT22;6899;51.546;6.912;2022-12-18T10:53:01;-0.90;99.90
13652;DHT22;6899;51.546;6.912;2022-12-18T10:55:34;-0.90;99.90
13652;DHT22;6899;51.546;6.912;2022-12-18T10:58:16;-1.00;99.90
13652;DHT22;6899;51.546;6.912;2022-12-18T11:00:43;-1.00;99.90
13652;DHT22;6899;51.546;6.912;2022-12-18T11:03:30;-1.10;99.90
13652;DHT22;6899;51.546;6.912;2022-12-18T11:06:02;-1.00;99.90
13652;DHT22;6899;51.546;6.912;2022-12-18T11:08:30;-1.00;99.90
13652;DHT22;6899;51.546;6.912;2022-12-18T11:10:58;-0.90;99.90
13652;DHT22;6899;51.546;6.912;2022-12-18T11:13:27;-0.70;99.90
13652;DHT22;6899;51.546;6.912;2022-12-18T11:15:55;-0.60;99.90
13652;DHT22;6899;51.546;6.912;2022-12-18T11:18:26;-0.50;99.90
13652;DHT22;6899;51.546;6.912;2022-12-18T11:20:56;-0.50;99.90
13652;DHT22;6899;51.546;6.912;2022-12-18T11:23:24;-0.40;99.90
13652;DHT22;6899;51.546;6.912;2022-12-18T11:25:54;-0.30;99.90
13652;DHT22;6899;51.546;6.912;2022-12-18T11:28:45;-0.20;99.90
13652;DHT22;6899;51.546;6.912;2022-12-18T11:31:25;-0.20;99.90
13652;DHT22;6899;51.546;6.912;2022-12-18T11:34:09;-0.10;99.90
13652;DHT22;6899;51.546;6.912;2022-12-18T11:36:40;0.00;99.90
13652;DHT22;6899;51.546;6.912;2022-12-18T11:39:17;0.00;99.90
13652;DHT22;6899;51.546;6.912;2022-12-18T11:41:50;0.10;99.90
13652;DHT22;6899;51.546;6.912;2022-12-18T11:44:47;0.10;99.90
13652;DHT22;6899;51.546;6.912;2022-12-18T11:47:25;0.10;99.90
13652;DHT22;6899;51.546;6.912;2022-12-18T11:49:56;0.20;99.90
13652;DHT22;6899;51.546;6.912;2022-12-18T11:52:28;0.30;99.90
13652;DHT22;6899;51.546;6.912;2022-12-18T11:55:13;0.20;99.90
13652;DHT22;6899;51.546;6.912;2022-12-18T11:57:46;0.20;99.90
13652;DHT22;6899;51.546;6.912;2022-12-18T12:00:18;0.20;99.90
13652;DHT22;6899;51.546;6.912;2022-12-18T12:03:06;0.30;99.90
13652;DHT22;6899;51.546;6.912;2022-12-18T12:05:51;0.30;99.90
13652;DHT22;6899;51.546;6.912;2022-12-18T12:08:24;0.30;99.90
13652;DHT22;6899;51.546;6.912;2022-12-18T12:11:01;0.40;99.90
13652;DHT22;6899;51.546;6.912;2022-12-18T12:13:40;0.40;99.90
13652;DHT22;6899;51.546;6.912;2022-12-18T12:16:17;0.40;99.90
13652;DHT22;6899;51.546;6.912;2022-12-18T12:19:01;0.40;99.90
13652;DHT22;6899;51.546;6.912;2022-12-18T12:21:35;0.50;99.90
13652;DHT22;6899;51.546;6.912;2022-12-18T12:24:18;0.50;99.90
13652;DHT22;6899;51.546;6.912;2022-12-18T12:26:50;0.40;99.90
13652;DHT22;6899;51.546;6.912;2022-12-18T12:29:30;0.40;99.90
13652;DHT22;6899;51.546;6.912;2022-12-18T12:32:11;0.40;99.90
13652;DHT22;6899;51.546;6.912;2022-12-18T12:34:51;0.50;99.90
13652;DHT22;6899;51.546;6.912;2022-12-18T12:37:32;0.40;99.90
13652;DHT22;6899;51.546;6.912;2022-12-18T12:40:02;0.40;99.90
13652;DHT22;6899;51.546;6.912;2022-12-18T12:42:32;0.40;99.90
13652;DHT22;6899;51.546;6.912;2022-12-18T12:45:26;0.40;99.90
13652;DHT22;6899;51.546;6.912;2022-12-18T12:48:02;0.40;99.90
13652;DHT22;6899;51.546;6.912;2022-12-18T12:50:33;0.50;99.90
13652;DHT22;6899;51.546;6.912;2022-12-18T12:53:02;0.50;99.90
13652;DHT22;6899;51.546;6.912;2022-12-18T12:55:32;0.50;99.90
13652;DHT22;6899;51.546;6.912;2022-12-18T12:58:06;0.50;99.90
13652;DHT22;6899;51.546;6.912;2022-12-18T13:00:40;0.50;99.90
13652;DHT22;6899;51.546;6.912;2022-12-18T13:03:18;0.50;99.90
13652;DHT22;6899;51.546;6.912;2022-12-18T13:05:54;0.50;99.90
13652;DHT22;6899;51.546;6.912;2022-12-18T13:08:24;0.50;99.90
13652;DHT22;6899;51.546;6.912;2022-12-18T13:10:52;0.40;99.90
13652;DHT22;6899;51.546;6.912;2022-12-18T13:13:48;0.40;99.90
13652;DHT22;6899;51.546;6.912;2022-12-18T13:16:24;0.40;99.90
13652;DHT22;6899;51.546;6.912;2022-12-18T13:18:55;0.40;99.90
13652;DHT22;6899;51.546;6.912;2022-12-18T13:21:26;0.30;99.90
13652;DHT22;6899;51.546;6.912;2022-12-18T13:23:54;0.30;99.90
13652;DHT22;6899;51.546;6.912;2022-12-18T13:26:32;0.30;99.90
13652;DHT22;6899;51.546;6.912;2022-12-18T13:29:00;0.20;99.90
13652;DHT22;6899;51.546;6.912;2022-12-18T13:32:02;0.10;99.90
13652;DHT22;6899;51.546;6.912;2022-12-18T13:34:31;0.10;99.90
13652;DHT22;6899;51.546;6.912;2022-12-18T13:39:58;0.10;99.90
13652;DHT22;6899;51.546;6.912;2022-12-18T13:42:38;0.10;99.90
13652;DHT22;6899;51.546;6.912;2022-12-18T13:45:43;0.10;99.90
13652;DHT22;6899;51.546;6.912;2022-12-18T13:48:19;0.00;99.90
13652;DHT22;6899;51.546;6.912;2022-12-18T13:50:56;0.00;99.90
13652;DHT22;6899;51.546;6.912;2022-12-18T13:53:27;-0.10;99.90
13652;DHT22;6899;51.546;6.912;2022-12-18T13:55:54;-0.10;99.90
13652;DHT22;6899;51.546;6.912;2022-12-18T13:58:21;-0.10;99.90
13652;DHT22;6899;51.546;6.912;2022-12-18T14:00:48;-0.10;99.90
13652;DHT22;6899;51.546;6.912;2022-12-18T14:03:22;-0.10;99.90
13652;DHT22;6899;51.546;6.912;2022-12-18T14:06:00;-0.10;99.90
13652;DHT22;6899;51.546;6.912;2022-12-18T14:08:33;-0.10;99.90
13652;DHT22;6899;51.546;6.912;2022-12-18T14:11:01;-0.20;99.90
13652;DHT22;6899;51.546;6.912;2022-12-18T14:13:32;-0.20;99.90
13652;DHT22;6899;51.546;6.912;2022-12-18T14:16:01;-0.30;99.90
13652;DHT22;6899;51.546;6.912;2022-12-18T14:18:34;-0.30;99.90
13652;DHT22;6899;51.546;6.912;2022-12-18T14:21:04;-0.30;99.90
13652;DHT22;6899;51.546;6.912;2022-12-18T14:23:36;-0.40;99.90
13652;DHT22;6899;51.546;6.912;2022-12-18T14:26:20;-0.50;99.90
13652;DHT22;6899;51.546;6.912;2022-12-18T14:28:47;-0.50;99.90
13652;DHT22;6899;51.546;6.912;2022-12-18T14:31:18;-0.60;99.90
13652;DHT22;6899;51.546;6.912;2022-12-18T14:33:45;-0.60;99.90
13652;DHT22;6899;51.546;6.912;2022-12-18T14:36:17;-0.60;99.90
13652;DHT22;6899;51.546;6.912;2022-12-18T14:38:49;-0.60;99.90
13652;DHT22;6899;51.546;6.912;2022-12-18T14:41:17;-0.60;99.90
13652;DHT22;6899;51.546;6.912;2022-12-18T14:43:48;-0.60;99.90
13652;DHT22;6899;51.546;6.912;2022-12-18T14:46:34;-0.60;99.90
13652;DHT22;6899;51.546;6.912;2022-12-18T14:49:03;-0.70;99.90
13652;DHT22;6899;51.546;6.912;2022-12-18T14:51:33;-0.70;99.90
13652;DHT22;6899;51.546;6.912;2022-12-18T14:54:02;-0.70;99.90
13652;DHT22;6899;51.546;6.912;2022-12-18T14:56:32;-0.60;99.90
13652;DHT22;6899;51.546;6.912;2022-12-18T14:59:02;-0.60;99.90
13652;DHT22;6899;51.546;6.912;2022-12-18T15:01:32;-0.60;99.90
13652;DHT22;6899;51.546;6.912;2022-12-18T15:04:01;-0.60;99.90
13652;DHT22;6899;51.546;6.912;2022-12-18T15:06:32;-0.60;99.90
13652;DHT22;6899;51.546;6.912;2022-12-18T15:09:02;-0.60;99.90
13652;DHT22;6899;51.546;6.912;2022-12-18T15:11:35;-0.70;99.90
13652;DHT22;6899;51.546;6.912;2022-12-18T15:14:38;-0.70;99.90
13652;DHT22;6899;51.546;6.912;2022-12-18T15:17:12;-0.70;99.90
13652;DHT22;6899;51.546;6.912;2022-12-18T15:19:42;-0.80;99.90
13652;DHT22;6899;51.546;6.912;2022-12-18T15:22:26;-0.80;99.90
13652;DHT22;6899;51.546;6.912;2022-12-18T15:24:53;-0.90;99.90
13652;DHT22;6899;51.546;6.912;2022-12-18T15:27:23;-1.00;99.90
13652;DHT22;6899;51.546;6.912;2022-12-18T15:32:47;-1.10;99.90
13652;DHT22;6899;51.546;6.912;2022-12-18T15:35:18;-1.10;99.90
13652;DHT22;6899;51.546;6.912;2022-12-18T15:37:47;-1.10;99.90
13652;DHT22;6899;51.546;6.912;2022-12-18T15:40:15;-1.20;99.90
13652;DHT22;6899;51.546;6.912;2022-12-18T15:42:43;-1.20;99.90
13652;DHT22;6899;51.546;6.912;2022-12-18T15:45:30;-1.20;99.90
13652;DHT22;6899;51.546;6.912;2022-12-18T15:47:57;-1.20;99.90
13652;DHT22;6899;51.546;6.912;2022-12-18T15:50:24;-1.20;99.90
13652;DHT22;6899;51.546;6.912;2022-12-18T15:52:54;-1.20;99.90
13652;DHT22;6899;51.546;6.912;2022-12-18T15:55:23;-1.20;99.90
13652;DHT22;6899;51.546;6.912;2022-12-18T15:58:25;-1.20;99.90
13652;DHT22;6899;51.546;6.912;2022-12-18T16:00:56;-1.20;99.90
13652;DHT22;6899;51.546;6.912;2022-12-18T16:03:26;-1.10;99.90
13652;DHT22;6899;51.546;6.912;2022-12-18T16:05:54;-1.00;99.90
13652;DHT22;6899;51.546;6.912;2022-12-18T16:08:22;-0.70;99.90
13652;DHT22;6899;51.546;6.912;2022-12-18T16:10:49;-0.80;99.90
13652;DHT22;6899;51.546;6.912;2022-12-18T16:13:18;-0.60;99.90
13652;DHT22;6899;51.546;6.912;2022-12-18T16:15:45;-0.60;99.90
13652;DHT22;6899;51.546;6.912;2022-12-18T16:18:13;-0.60;99.90
13652;DHT22;6899;51.546;6.912;2022-12-18T16:20:40;-0.40;99.90
13652;DHT22;6899;51.546;6.912;2022-12-18T16:23:06;-0.30;99.90